sensor_id;sensor_type;location;lat;lon;timestamp;P1;durP1;ratioP1;P2;durP2;ratioP2
29422;SDS011;16399;51.686;8.684;2023-02-01T00:00:23;29.07;;;4.72;;
29422;SDS011;16399;51.686;8.684;2023-02-01T00:03:26;14.98;;;4.65;;
29422;SDS011;16399;51.686;8.684;2023-02-01T00:06:28;18.07;;;3.75;;
29422;SDS011;16399;51.686;8.684;2023-02-01T00:09:30;25.30;;;4.80;;
29422;SDS011;16399;51.686;8.684;2023-02-01T00:12:33;19.75;;;4.25;;
29422;SDS011;16399;51.686;8.684;2023-02-01T00:15:35;19.65;;;4.47;;
29422;SDS011;16399;51.686;8.684;2023-02-01T00:18:37;23.57;;;4.08;;
29422;SDS011;16399;51.686;8.684;2023-02-01T00:21:40;16.32;;;4.22;;
29422;SDS011;16399;51.686;8.684;2023-02-01T00:24:44;12.07;;;3.20;;
29422;SDS011;16399;51.686;8.684;2023-02-01T00:27:49;20.10;;;5.25;;
29422;SDS011;16399;51.686;8.684;2023-02-01T00:30:58;22.32;;;4.67;;
29422;SDS011;16399;51.686;8.684;2023-02-01T00:34:02;20.05;;;4.03;;
29422;SDS011;16399;51.686;8.684;2023-02-01T00:37:04;19.20;;;4.50;;
29422;SDS011;16399;51.686;8.684;2023-02-01T00:40:07;22.95;;;4.47;;
29422;SDS011;16399;51.686;8.684;2023-02-01T00:43:10;22.10;;;4.78;;
29422;SDS011;16399;51.686;8.684;2023-02-01T00:46:13;23.75;;;4.33;;
29422;SDS011;16399;51.686;8.684;2023-02-01T00:49:17;18.17;;;4.40;;
29422;SDS011;16399;51.686;8.684;2023-02-01T00:52:19;19.87;;;4.58;;
29422;SDS011;16399;51.686;8.684;2023-02-01T00:55:21;18.62;;;4.85;;
29422;SDS011;16399;51.686;8.684;2023-02-01T00:58:24;19.55;;;3.87;;
29422;SDS011;16399;51.686;8.684;2023-02-01T01:01:27;22.87;;;4.55;;
29422;SDS011;16399;51.686;8.684;2023-02-01T01:04:29;17.10;;;5.03;;
29422;SDS011;16399;51.686;8.684;2023-02-01T01:07:32;24.37;;;4.83;;
29422;SDS011;16399;51.686;8.684;2023-02-01T01:10:34;24.55;;;5.15;;
29422;SDS011;16399;51.686;8.684;2023-02-01T01:13:36;24.92;;;5.42;;
29422;SDS011;16399;51.686;8.684;2023-02-01T01:16:39;20.80;;;5.33;;
29422;SDS011;16399;51.686;8.684;2023-02-01T01:19:41;21.95;;;5.30;;
29422;SDS011;16399;51.686;8.684;2023-02-01T01:22:43;22.85;;;5.35;;
29422;SDS011;16399;51.686;8.684;2023-02-01T01:25:46;19.85;;;5.17;;
29422;SDS011;16399;51.686;8.684;2023-02-01T01:28:48;20.72;;;5.40;;
29422;SDS011;16399;51.686;8.684;2023-02-01T01:31:50;28.32;;;5.97;;
29422;SDS011;16399;51.686;8.684;2023-02-01T01:34:53;22.60;;;6.15;;
29422;SDS011;16399;51.686;8.684;2023-02-01T01:37:55;24.67;;;6.78;;
29422;SDS011;16399;51.686;8.684;2023-02-01T01:40:58;18.82;;;5.90;;
29422;SDS011;16399;51.686;8.684;2023-02-01T01:44:01;19.87;;;5.72;;
29422;SDS011;16399;51.686;8.684;2023-02-01T01:47:05;21.45;;;5.53;;
29422;SDS011;16399;51.686;8.684;2023-02-01T01:50:08;23.65;;;7.20;;
29422;SDS011;16399;51.686;8.684;2023-02-01T01:53:12;21.42;;;7.62;;
29422;SDS011;16399;51.686;8.684;2023-02-01T01:56:16;25.30;;;7.12;;
29422;SDS011;16399;51.686;8.684;2023-02-01T01:59:19;19.20;;;6.92;;
29422;SDS011;16399;51.686;8.684;2023-02-01T02:02:24;22.40;;;6.87;;
29422;SDS011;16399;51.686;8.684;2023-02-01T02:05:26;19.92;;;7.12;;
29422;SDS011;16399;51.686;8.684;2023-02-01T02:08:29;22.73;;;7.15;;
29422;SDS011;16399;51.686;8.684;2023-02-01T02:11:32;20.02;;;6.85;;
29422;SDS011;16399;51.686;8.684;2023-02-01T02:14:34;22.50;;;7.37;;
29422;SDS011;16399;51.686;8.684;2023-02-01T02:17:54;31.73;;;6.58;;
29422;SDS011;16399;51.686;8.684;2023-02-01T02:21:09;26.07;;;6.60;;
29422;SDS011;16399;51.686;8.684;2023-02-01T02:24:20;19.77;;;5.35;;
29422;SDS011;16399;51.686;8.684;2023-02-01T02:27:46;18.07;;;6.05;;
29422;SDS011;16399;51.686;8.684;2023-02-01T02:31:06;17.50;;;5.30;;
29422;SDS011;16399;51.686;8.684;2023-02-01T02:44:14;22.93;;;5.67;;
29422;SDS011;16399;51.686;8.684;2023-02-01T02:51:24;18.52;;;3.67;;
29422;SDS011;16399;51.686;8.684;2023-02-01T02:54:35;15.53;;;3.60;;
29422;SDS011;16399;51.686;8.684;2023-02-01T02:57:47;18.42;;;3.80;;
29422;SDS011;16399;51.686;8.684;2023-02-01T03:01:07;14.25;;;3.10;;
29422;SDS011;16399;51.686;8.684;2023-02-01T03:04:27;22.10;;;4.50;;
29422;SDS011;16399;51.686;8.684;2023-02-01T03:11:09;14.35;;;3.62;;
29422;SDS011;16399;51.686;8.684;2023-02-01T03:14:14;21.52;;;3.72;;
29422;SDS011;16399;51.686;8.684;2023-02-01T03:17:19;14.65;;;3.62;;
29422;SDS011;16399;51.686;8.684;2023-02-01T03:20:24;18.37;;;3.62;;
29422;SDS011;16399;51.686;8.684;2023-02-01T03:23:27;16.57;;;3.20;;
29422;SDS011;16399;51.686;8.684;2023-02-01T03:26:33;15.53;;;3.00;;
29422;SDS011;16399;51.686;8.684;2023-02-01T03:29:49;21.70;;;3.42;;
29422;SDS011;16399;51.686;8.684;2023-02-01T03:33:00;14.38;;;3.90;;
29422;SDS011;16399;51.686;8.684;2023-02-01T03:42:24;20.35;;;3.55;;
29422;SDS011;16399;51.686;8.684;2023-02-01T03:45:43;21.35;;;3.75;;
29422;SDS011;16399;51.686;8.684;2023-02-01T03:48:47;18.00;;;3.17;;
29422;SDS011;16399;51.686;8.684;2023-02-01T03:51:51;17.65;;;3.35;;
29422;SDS011;16399;51.686;8.684;2023-02-01T03:54:55;16.50;;;3.22;;
29422;SDS011;16399;51.686;8.684;2023-02-01T03:58:01;20.50;;;3.83;;
29422;SDS011;16399;51.686;8.684;2023-02-01T04:01:04;10.10;;;2.77;;
29422;SDS011;16399;51.686;8.684;2023-02-01T04:04:06;21.42;;;4.08;;
29422;SDS011;16399;51.686;8.684;2023-02-01T04:07:09;22.05;;;4.05;;
29422;SDS011;16399;51.686;8.684;2023-02-01T04:10:12;18.62;;;3.40;;
29422;SDS011;16399;51.686;8.684;2023-02-01T04:13:15;18.98;;;4.58;;
29422;SDS011;16399;51.686;8.684;2023-02-01T04:16:17;18.20;;;3.52;;
29422;SDS011;16399;51.686;8.684;2023-02-01T04:19:19;11.50;;;3.40;;
29422;SDS011;16399;51.686;8.684;2023-02-01T04:22:22;22.42;;;3.95;;
29422;SDS011;16399;51.686;8.684;2023-02-01T04:25:24;12.70;;;3.85;;
29422;SDS011;16399;51.686;8.684;2023-02-01T04:28:26;16.67;;;3.10;;
29422;SDS011;16399;51.686;8.684;2023-02-01T04:31:29;16.95;;;4.10;;
29422;SDS011;16399;51.686;8.684;2023-02-01T04:34:31;13.40;;;3.58;;
29422;SDS011;16399;51.686;8.684;2023-02-01T04:37:34;18.15;;;4.25;;
29422;SDS011;16399;51.686;8.684;2023-02-01T04:40:36;18.15;;;3.00;;
29422;SDS011;16399;51.686;8.684;2023-02-01T04:43:38;22.73;;;4.12;;
29422;SDS011;16399;51.686;8.684;2023-02-01T04:46:41;22.22;;;3.60;;
29422;SDS011;16399;51.686;8.684;2023-02-01T04:49:44;19.02;;;3.52;;
29422;SDS011;16399;51.686;8.684;2023-02-01T04:52:46;18.35;;;3.25;;
29422;SDS011;16399;51.686;8.684;2023-02-01T04:55:48;14.85;;;3.42;;
29422;SDS011;16399;51.686;8.684;2023-02-01T04:58:51;15.63;;;2.98;;
29422;SDS011;16399;51.686;8.684;2023-02-01T05:01:53;21.55;;;3.50;;
29422;SDS011;16399;51.686;8.684;2023-02-01T05:04:55;18.27;;;4.37;;
29422;SDS011;16399;51.686;8.684;2023-02-01T05:07:58;21.30;;;4.45;;
29422;SDS011;16399;51.686;8.684;2023-02-01T05:11:00;18.10;;;3.77;;
29422;SDS011;16399;51.686;8.684;2023-02-01T05:14:05;27.25;;;4.00;;
29422;SDS011;16399;51.686;8.684;2023-02-01T05:17:07;13.88;;;3.75;;
29422;SDS011;16399;51.686;8.684;2023-02-01T05:20:10;23.52;;;4.05;;
29422;SDS011;16399;51.686;8.684;2023-02-01T05:23:12;23.40;;;3.27;;
29422;SDS011;16399;51.686;8.684;2023-02-01T05:26:14;19.30;;;3.70;;
29422;SDS011;16399;51.686;8.684;2023-02-01T05:29:17;19.32;;;3.45;;
29422;SDS011;16399;51.686;8.684;2023-02-01T05:32:19;26.23;;;4.25;;
29422;SDS011;16399;51.686;8.684;2023-02-01T05:35:21;22.52;;;3.17;;
29422;SDS011;16399;51.686;8.684;2023-02-01T05:38:24;23.27;;;3.40;;
29422;SDS011;16399;51.686;8.684;2023-02-01T05:41:26;15.48;;;3.40;;
29422;SDS011;16399;51.686;8.684;2023-02-01T05:44:28;23.20;;;3.55;;
29422;SDS011;16399;51.686;8.684;2023-02-01T05:47:31;23.75;;;3.62;;
29422;SDS011;16399;51.686;8.684;2023-02-01T05:50:33;28.20;;;3.25;;
29422;SDS011;16399;51.686;8.684;2023-02-01T05:53:35;19.15;;;3.77;;
29422;SDS011;16399;51.686;8.684;2023-02-01T05:56:37;17.25;;;3.25;;
29422;SDS011;16399;51.686;8.684;2023-02-01T05:59:41;17.92;;;2.80;;
29422;SDS011;16399;51.686;8.684;2023-02-01T06:02:45;27.80;;;4.13;;
29422;SDS011;16399;51.686;8.684;2023-02-01T06:05:47;20.82;;;3.00;;
29422;SDS011;16399;51.686;8.684;2023-02-01T06:08:49;15.35;;;3.08;;
29422;SDS011;16399;51.686;8.684;2023-02-01T06:11:52;22.80;;;3.05;;
29422;SDS011;16399;51.686;8.684;2023-02-01T06:14:54;21.23;;;3.30;;
29422;SDS011;16399;51.686;8.684;2023-02-01T06:17:56;17.15;;;4.20;;
29422;SDS011;16399;51.686;8.684;2023-02-01T06:20:59;17.40;;;3.35;;
29422;SDS011;16399;51.686;8.684;2023-02-01T06:24:02;20.10;;;4.45;;
29422;SDS011;16399;51.686;8.684;2023-02-01T06:27:04;20.45;;;3.87;;
29422;SDS011;16399;51.686;8.684;2023-02-01T06:30:07;17.17;;;2.65;;
29422;SDS011;16399;51.686;8.684;2023-02-01T06:33:10;22.20;;;3.12;;
29422;SDS011;16399;51.686;8.684;2023-02-01T06:36:15;21.40;;;4.03;;
29422;SDS011;16399;51.686;8.684;2023-02-01T06:39:19;25.37;;;3.05;;
29422;SDS011;16399;51.686;8.684;2023-02-01T06:42:21;16.95;;;2.85;;
29422;SDS011;16399;51.686;8.684;2023-02-01T06:45:23;19.42;;;3.45;;
29422;SDS011;16399;51.686;8.684;2023-02-01T06:48:26;13.50;;;3.37;;
29422;SDS011;16399;51.686;8.684;2023-02-01T06:51:28;24.43;;;3.80;;
29422;SDS011;16399;51.686;8.684;2023-02-01T06:54:31;15.83;;;3.00;;
29422;SDS011;16399;51.686;8.684;2023-02-01T06:57:34;14.45;;;2.98;;
29422;SDS011;16399;51.686;8.684;2023-02-01T07:00:36;18.10;;;2.85;;
29422;SDS011;16399;51.686;8.684;2023-02-01T07:03:39;25.70;;;4.22;;
29422;SDS011;16399;51.686;8.684;2023-02-01T07:06:42;23.22;;;2.98;;
29422;SDS011;16399;51.686;8.684;2023-02-01T07:09:44;17.05;;;3.12;;
29422;SDS011;16399;51.686;8.684;2023-02-01T07:12:46;15.85;;;3.15;;
29422;SDS011;16399;51.686;8.684;2023-02-01T07:15:49;21.40;;;3.35;;
29422;SDS011;16399;51.686;8.684;2023-02-01T07:18:51;22.65;;;3.90;;
29422;SDS011;16399;51.686;8.684;2023-02-01T07:21:54;16.27;;;2.70;;
29422;SDS011;16399;51.686;8.684;2023-02-01T07:24:56;22.42;;;3.60;;
29422;SDS011;16399;51.686;8.684;2023-02-01T07:27:58;21.75;;;3.80;;
29422;SDS011;16399;51.686;8.684;2023-02-01T07:31:10;14.30;;;2.80;;
29422;SDS011;16399;51.686;8.684;2023-02-01T07:34:15;17.42;;;3.77;;
29422;SDS011;16399;51.686;8.684;2023-02-01T07:37:18;19.07;;;3.45;;
29422;SDS011;16399;51.686;8.684;2023-02-01T07:40:20;21.10;;;3.25;;
29422;SDS011;16399;51.686;8.684;2023-02-01T07:43:24;19.33;;;3.43;;
29422;SDS011;16399;51.686;8.684;2023-02-01T07:46:27;15.85;;;3.05;;
29422;SDS011;16399;51.686;8.684;2023-02-01T07:49:29;17.48;;;3.42;;
29422;SDS011;16399;51.686;8.684;2023-02-01T07:52:32;19.40;;;3.17;;
29422;SDS011;16399;51.686;8.684;2023-02-01T07:55:37;19.25;;;3.27;;
29422;SDS011;16399;51.686;8.684;2023-02-01T07:58:41;18.12;;;2.90;;
29422;SDS011;16399;51.686;8.684;2023-02-01T08:01:43;16.50;;;3.33;;
29422;SDS011;16399;51.686;8.684;2023-02-01T08:04:46;16.80;;;3.22;;
29422;SDS011;16399;51.686;8.684;2023-02-01T08:07:49;24.02;;;3.85;;
29422;SDS011;16399;51.686;8.684;2023-02-01T08:10:51;20.90;;;3.35;;
29422;SDS011;16399;51.686;8.684;2023-02-01T08:13:55;17.05;;;3.12;;
29422;SDS011;16399;51.686;8.684;2023-02-01T08:16:57;18.87;;;4.22;;
29422;SDS011;16399;51.686;8.684;2023-02-01T08:19:59;18.02;;;3.50;;
29422;SDS011;16399;51.686;8.684;2023-02-01T08:23:02;18.87;;;3.95;;
29422;SDS011;16399;51.686;8.684;2023-02-01T08:26:12;22.27;;;3.45;;
29422;SDS011;16399;51.686;8.684;2023-02-01T08:29:18;13.25;;;3.12;;
29422;SDS011;16399;51.686;8.684;2023-02-01T08:32:21;24.65;;;3.62;;
29422;SDS011;16399;51.686;8.684;2023-02-01T08:35:23;14.03;;;3.08;;
29422;SDS011;16399;51.686;8.684;2023-02-01T08:38:25;20.25;;;3.98;;
29422;SDS011;16399;51.686;8.684;2023-02-01T08:41:29;20.15;;;4.05;;
29422;SDS011;16399;51.686;8.684;2023-02-01T08:44:31;24.30;;;3.87;;
29422;SDS011;16399;51.686;8.684;2023-02-01T08:47:34;15.58;;;3.30;;
29422;SDS011;16399;51.686;8.684;2023-02-01T08:50:36;20.45;;;3.35;;
29422;SDS011;16399;51.686;8.684;2023-02-01T08:53:39;20.52;;;3.70;;
29422;SDS011;16399;51.686;8.684;2023-02-01T08:56:42;20.97;;;3.60;;
29422;SDS011;16399;51.686;8.684;2023-02-01T08:59:44;17.57;;;3.27;;
29422;SDS011;16399;51.686;8.684;2023-02-01T09:02:46;22.45;;;3.50;;
29422;SDS011;16399;51.686;8.684;2023-02-01T09:05:49;16.55;;;3.58;;
29422;SDS011;16399;51.686;8.684;2023-02-01T09:08:51;21.07;;;3.27;;
29422;SDS011;16399;51.686;8.684;2023-02-01T09:11:53;17.75;;;4.20;;
29422;SDS011;16399;51.686;8.684;2023-02-01T09:14:56;20.85;;;3.22;;
29422;SDS011;16399;51.686;8.684;2023-02-01T09:18:00;16.45;;;3.20;;
29422;SDS011;16399;51.686;8.684;2023-02-01T09:21:06;19.85;;;3.20;;
29422;SDS011;16399;51.686;8.684;2023-02-01T09:24:12;17.15;;;3.20;;
29422;SDS011;16399;51.686;8.684;2023-02-01T09:27:14;19.15;;;3.90;;
29422;SDS011;16399;51.686;8.684;2023-02-01T09:30:17;17.95;;;3.62;;
29422;SDS011;16399;51.686;8.684;2023-02-01T09:33:19;20.55;;;4.28;;
29422;SDS011;16399;51.686;8.684;2023-02-01T09:36:23;15.23;;;3.57;;
29422;SDS011;16399;51.686;8.684;2023-02-01T09:39:25;13.98;;;4.90;;
29422;SDS011;16399;51.686;8.684;2023-02-01T09:42:45;23.35;;;4.53;;
29422;SDS011;16399;51.686;8.684;2023-02-01T09:45:50;16.73;;;3.50;;
29422;SDS011;16399;51.686;8.684;2023-02-01T09:48:53;19.23;;;3.85;;
29422;SDS011;16399;51.686;8.684;2023-02-01T09:51:59;16.30;;;3.87;;
29422;SDS011;16399;51.686;8.684;2023-02-01T09:55:04;16.52;;;4.08;;
29422;SDS011;16399;51.686;8.684;2023-02-01T09:58:20;21.17;;;4.42;;
29422;SDS011;16399;51.686;8.684;2023-02-01T10:01:24;24.27;;;5.03;;
29422;SDS011;16399;51.686;8.684;2023-02-01T10:04:29;14.65;;;4.67;;
29422;SDS011;16399;51.686;8.684;2023-02-01T10:07:52;16.82;;;4.12;;
29422;SDS011;16399;51.686;8.684;2023-02-01T10:10:55;17.05;;;4.45;;
29422;SDS011;16399;51.686;8.684;2023-02-01T10:14:06;23.77;;;4.47;;
29422;SDS011;16399;51.686;8.684;2023-02-01T10:17:20;25.17;;;5.15;;
29422;SDS011;16399;51.686;8.684;2023-02-01T10:20:24;18.67;;;4.47;;
29422;SDS011;16399;51.686;8.684;2023-02-01T10:23:42;18.70;;;3.92;;
29422;SDS011;16399;51.686;8.684;2023-02-01T10:26:58;15.40;;;4.10;;
29422;SDS011;16399;51.686;8.684;2023-02-01T10:29:55;20.92;;;4.70;;
29422;SDS011;16399;51.686;8.684;2023-02-01T10:36:22;23.70;;;4.50;;
29422;SDS011;16399;51.686;8.684;2023-02-01T10:39:25;17.75;;;5.03;;
29422;SDS011;16399;51.686;8.684;2023-02-01T10:42:28;16.23;;;4.08;;
29422;SDS011;16399;51.686;8.684;2023-02-01T10:45:32;17.32;;;4.05;;
29422;SDS011;16399;51.686;8.684;2023-02-01T10:48:35;15.90;;;4.00;;
29422;SDS011;16399;51.686;8.684;2023-02-01T10:52:01;20.82;;;4.42;;
29422;SDS011;16399;51.686;8.684;2023-02-01T10:58:32;14.98;;;4.00;;
29422;SDS011;16399;51.686;8.684;2023-02-01T11:01:40;16.70;;;4.95;;
29422;SDS011;16399;51.686;8.684;2023-02-01T11:04:45;23.12;;;4.65;;
29422;SDS011;16399;51.686;8.684;2023-02-01T11:07:48;21.50;;;4.92;;
29422;SDS011;16399;51.686;8.684;2023-02-01T11:11:03;19.85;;;4.80;;
29422;SDS011;16399;51.686;8.684;2023-02-01T11:14:13;13.03;;;4.28;;
29422;SDS011;16399;51.686;8.684;2023-02-01T11:20:34;12.93;;;3.92;;
29422;SDS011;16399;51.686;8.684;2023-02-01T11:23:40;18.37;;;4.62;;
29422;SDS011;16399;51.686;8.684;2023-02-01T11:26:44;18.10;;;4.65;;
29422;SDS011;16399;51.686;8.684;2023-02-01T11:29:51;19.82;;;4.35;;
29422;SDS011;16399;51.686;8.684;2023-02-01T11:32:53;15.68;;;4.08;;
29422;SDS011;16399;51.686;8.684;2023-02-01T11:35:56;20.60;;;5.00;;
29422;SDS011;16399;51.686;8.684;2023-02-01T11:39:10;20.17;;;5.43;;
29422;SDS011;16399;51.686;8.684;2023-02-01T11:42:16;13.43;;;4.45;;
29422;SDS011;16399;51.686;8.684;2023-02-01T11:45:23;16.62;;;4.53;;
29422;SDS011;16399;51.686;8.684;2023-02-01T11:48:31;19.57;;;5.00;;
29422;SDS011;16399;51.686;8.684;2023-02-01T11:58:06;16.30;;;4.37;;
29422;SDS011;16399;51.686;8.684;2023-02-01T12:04:54;23.85;;;4.60;;
29422;SDS011;16399;51.686;8.684;2023-02-01T12:08:02;24.57;;;5.78;;
29422;SDS011;16399;51.686;8.684;2023-02-01T12:11:18;17.40;;;4.33;;
29422;SDS011;16399;51.686;8.684;2023-02-01T12:21:05;15.20;;;4.28;;
29422;SDS011;16399;51.686;8.684;2023-02-01T12:28:03;15.98;;;4.80;;
29422;SDS011;16399;51.686;8.684;2023-02-01T12:31:11;17.82;;;4.70;;
29422;SDS011;16399;51.686;8.684;2023-02-01T12:37:51;18.87;;;4.65;;
29422;SDS011;16399;51.686;8.684;2023-02-01T12:41:08;22.60;;;5.47;;
29422;SDS011;16399;51.686;8.684;2023-02-01T12:44:24;20.70;;;5.08;;
29422;SDS011;16399;51.686;8.684;2023-02-01T12:51:00;19.50;;;5.42;;
29422;SDS011;16399;51.686;8.684;2023-02-01T12:54:18;16.02;;;4.75;;
29422;SDS011;16399;51.686;8.684;2023-02-01T12:57:33;21.15;;;5.72;;
29422;SDS011;16399;51.686;8.684;2023-02-01T13:00:39;17.87;;;4.67;;
29422;SDS011;16399;51.686;8.684;2023-02-01T13:03:44;13.50;;;5.28;;
29422;SDS011;16399;51.686;8.684;2023-02-01T13:06:50;19.98;;;5.40;;
29422;SDS011;16399;51.686;8.684;2023-02-01T13:10:11;22.07;;;5.33;;
29422;SDS011;16399;51.686;8.684;2023-02-01T13:16:31;20.02;;;5.10;;
29422;SDS011;16399;51.686;8.684;2023-02-01T13:19:57;18.57;;;5.60;;
29422;SDS011;16399;51.686;8.684;2023-02-01T13:23:16;24.35;;;5.42;;
29422;SDS011;16399;51.686;8.684;2023-02-01T13:26:19;18.23;;;5.05;;
29422;SDS011;16399;51.686;8.684;2023-02-01T13:29:21;17.20;;;5.75;;
29422;SDS011;16399;51.686;8.684;2023-02-01T13:32:33;19.30;;;5.87;;
29422;SDS011;16399;51.686;8.684;2023-02-01T13:39:02;20.45;;;5.17;;
29422;SDS011;16399;51.686;8.684;2023-02-01T13:42:00;16.77;;;5.47;;
29422;SDS011;16399;51.686;8.684;2023-02-01T13:45:14;24.02;;;5.15;;
29422;SDS011;16399;51.686;8.684;2023-02-01T13:48:27;18.10;;;5.22;;
29422;SDS011;16399;51.686;8.684;2023-02-01T13:51:37;15.65;;;5.10;;
29422;SDS011;16399;51.686;8.684;2023-02-01T13:54:44;18.90;;;5.83;;
29422;SDS011;16399;51.686;8.684;2023-02-01T13:57:50;20.25;;;5.78;;
29422;SDS011;16399;51.686;8.684;2023-02-01T14:11:33;17.40;;;4.55;;
29422;SDS011;16399;51.686;8.684;2023-02-01T14:14:44;15.50;;;5.08;;
29422;SDS011;16399;51.686;8.684;2023-02-01T14:17:46;24.30;;;4.95;;
29422;SDS011;16399;51.686;8.684;2023-02-01T14:20:48;17.67;;;4.45;;
29422;SDS011;16399;51.686;8.684;2023-02-01T14:30:21;18.73;;;4.58;;
29422;SDS011;16399;51.686;8.684;2023-02-01T14:33:25;17.30;;;3.58;;
29422;SDS011;16399;51.686;8.684;2023-02-01T14:39:51;19.65;;;3.60;;
29422;SDS011;16399;51.686;8.684;2023-02-01T14:42:54;22.55;;;4.03;;
29422;SDS011;16399;51.686;8.684;2023-02-01T14:45:57;12.28;;;3.70;;
29422;SDS011;16399;51.686;8.684;2023-02-01T14:48:59;18.15;;;3.75;;
29422;SDS011;16399;51.686;8.684;2023-02-01T14:52:04;10.78;;;3.00;;
29422;SDS011;16399;51.686;8.684;2023-02-01T14:55:13;20.88;;;3.22;;
29422;SDS011;16399;51.686;8.684;2023-02-01T14:58:29;13.98;;;3.72;;
29422;SDS011;16399;51.686;8.684;2023-02-01T15:01:48;15.35;;;3.47;;
29422;SDS011;16399;51.686;8.684;2023-02-01T15:04:55;13.72;;;2.72;;
29422;SDS011;16399;51.686;8.684;2023-02-01T15:07:59;13.05;;;2.35;;
29422;SDS011;16399;51.686;8.684;2023-02-01T15:11:06;15.20;;;2.98;;
29422;SDS011;16399;51.686;8.684;2023-02-01T15:14:12;18.57;;;3.05;;
29422;SDS011;16399;51.686;8.684;2023-02-01T15:17:21;15.45;;;3.37;;
29422;SDS011;16399;51.686;8.684;2023-02-01T15:20:25;13.78;;;2.50;;
29422;SDS011;16399;51.686;8.684;2023-02-01T15:23:29;17.20;;;2.85;;
29422;SDS011;16399;51.686;8.684;2023-02-01T15:26:32;12.82;;;3.33;;
29422;SDS011;16399;51.686;8.684;2023-02-01T15:29:34;22.40;;;3.65;;
29422;SDS011;16399;51.686;8.684;2023-02-01T15:32:37;13.48;;;2.20;;
29422;SDS011;16399;51.686;8.684;2023-02-01T15:35:44;12.43;;;2.10;;
29422;SDS011;16399;51.686;8.684;2023-02-01T15:38:48;14.93;;;2.65;;
29422;SDS011;16399;51.686;8.684;2023-02-01T15:42:12;12.85;;;2.35;;
29422;SDS011;16399;51.686;8.684;2023-02-01T15:45:22;16.75;;;3.15;;
29422;SDS011;16399;51.686;8.684;2023-02-01T15:48:32;15.35;;;2.67;;
29422;SDS011;16399;51.686;8.684;2023-02-01T15:51:34;14.30;;;2.75;;
29422;SDS011;16399;51.686;8.684;2023-02-01T15:54:49;8.70;;;2.17;;
29422;SDS011;16399;51.686;8.684;2023-02-01T15:57:54;13.72;;;2.60;;
29422;SDS011;16399;51.686;8.684;2023-02-01T16:00:57;15.18;;;2.98;;
29422;SDS011;16399;51.686;8.684;2023-02-01T16:04:24;13.70;;;2.58;;
29422;SDS011;16399;51.686;8.684;2023-02-01T16:07:28;16.62;;;3.20;;
29422;SDS011;16399;51.686;8.684;2023-02-01T16:10:31;10.18;;;2.37;;
29422;SDS011;16399;51.686;8.684;2023-02-01T16:13:36;12.85;;;2.67;;
29422;SDS011;16399;51.686;8.684;2023-02-01T16:16:39;17.48;;;2.58;;
29422;SDS011;16399;51.686;8.684;2023-02-01T16:19:41;15.45;;;3.08;;
29422;SDS011;16399;51.686;8.684;2023-02-01T16:22:43;13.08;;;2.87;;
29422;SDS011;16399;51.686;8.684;2023-02-01T16:25:46;13.70;;;2.40;;
29422;SDS011;16399;51.686;8.684;2023-02-01T16:28:48;13.48;;;3.40;;
29422;SDS011;16399;51.686;8.684;2023-02-01T16:31:50;15.38;;;2.95;;
29422;SDS011;16399;51.686;8.684;2023-02-01T16:34:53;24.67;;;3.83;;
29422;SDS011;16399;51.686;8.684;2023-02-01T16:37:57;22.60;;;4.22;;
29422;SDS011;16399;51.686;8.684;2023-02-01T16:41:00;14.90;;;2.33;;
29422;SDS011;16399;51.686;8.684;2023-02-01T16:44:03;13.60;;;2.75;;
29422;SDS011;16399;51.686;8.684;2023-02-01T16:47:21;14.40;;;2.90;;
29422;SDS011;16399;51.686;8.684;2023-02-01T16:50:21;19.60;;;3.12;;
29422;SDS011;16399;51.686;8.684;2023-02-01T16:53:26;17.20;;;2.98;;
29422;SDS011;16399;51.686;8.684;2023-02-01T16:59:33;15.23;;;2.40;;
29422;SDS011;16399;51.686;8.684;2023-02-01T17:02:35;8.78;;;1.80;;
29422;SDS011;16399;51.686;8.684;2023-02-01T17:05:37;7.47;;;1.27;;
29422;SDS011;16399;51.686;8.684;2023-02-01T17:08:41;7.62;;;1.47;;
29422;SDS011;16399;51.686;8.684;2023-02-01T17:14:47;8.53;;;1.75;;
29422;SDS011;16399;51.686;8.684;2023-02-01T17:17:50;8.35;;;1.52;;
29422;SDS011;16399;51.686;8.684;2023-02-01T17:20:54;7.83;;;1.60;;
29422;SDS011;16399;51.686;8.684;2023-02-01T17:23:57;12.45;;;2.10;;
29422;SDS011;16399;51.686;8.684;2023-02-01T17:27:00;8.58;;;1.87;;
29422;SDS011;16399;51.686;8.684;2023-02-01T17:30:04;9.78;;;2.35;;
29422;SDS011;16399;51.686;8.684;2023-02-01T17:33:40;9.28;;;2.50;;
29422;SDS011;16399;51.686;8.684;2023-02-01T17:36:23;21.55;;;3.42;;
29422;SDS011;16399;51.686;8.684;2023-02-01T17:39:26;16.57;;;3.08;;
29422;SDS011;16399;51.686;8.684;2023-02-01T17:42:46;11.45;;;2.77;;
29422;SDS011;16399;51.686;8.684;2023-02-01T17:45:54;11.97;;;3.10;;
29422;SDS011;16399;51.686;8.684;2023-02-01T17:48:58;14.18;;;2.37;;
29422;SDS011;16399;51.686;8.684;2023-02-01T17:52:00;10.45;;;2.42;;
29422;SDS011;16399;51.686;8.684;2023-02-01T17:55:09;10.55;;;1.82;;
29422;SDS011;16399;51.686;8.684;2023-02-01T17:58:09;10.00;;;2.17;;
29422;SDS011;16399;51.686;8.684;2023-02-01T18:01:19;10.18;;;2.05;;
29422;SDS011;16399;51.686;8.684;2023-02-01T18:04:21;9.45;;;1.77;;
29422;SDS011;16399;51.686;8.684;2023-02-01T18:07:23;11.50;;;1.75;;
29422;SDS011;16399;51.686;8.684;2023-02-01T18:10:25;8.28;;;1.45;;
29422;SDS011;16399;51.686;8.684;2023-02-01T18:13:28;7.42;;;1.45;;
29422;SDS011;16399;51.686;8.684;2023-02-01T18:16:32;7.40;;;1.57;;
29422;SDS011;16399;51.686;8.684;2023-02-01T18:19:36;10.43;;;2.37;;
29422;SDS011;16399;51.686;8.684;2023-02-01T18:22:39;9.93;;;2.95;;
29422;SDS011;16399;51.686;8.684;2023-02-01T18:25:41;13.75;;;2.98;;
29422;SDS011;16399;51.686;8.684;2023-02-01T18:28:45;7.67;;;2.93;;
29422;SDS011;16399;51.686;8.684;2023-02-01T18:31:47;11.55;;;3.75;;
29422;SDS011;16399;51.686;8.684;2023-02-01T18:34:50;12.43;;;4.40;;
29422;SDS011;16399;51.686;8.684;2023-02-01T18:37:52;11.50;;;2.85;;
29422;SDS011;16399;51.686;8.684;2023-02-01T18:40:55;9.20;;;3.40;;
29422;SDS011;16399;51.686;8.684;2023-02-01T18:43:58;11.12;;;3.58;;
29422;SDS011;16399;51.686;8.684;2023-02-01T18:47:00;11.78;;;2.52;;
29422;SDS011;16399;51.686;8.684;2023-02-01T18:50:02;10.95;;;2.30;;
29422;SDS011;16399;51.686;8.684;2023-02-01T18:53:06;12.23;;;2.17;;
29422;SDS011;16399;51.686;8.684;2023-02-01T18:56:10;10.30;;;1.77;;
29422;SDS011;16399;51.686;8.684;2023-02-01T18:59:14;7.53;;;2.55;;
29422;SDS011;16399;51.686;8.684;2023-02-01T19:02:18;9.63;;;2.05;;
29422;SDS011;16399;51.686;8.684;2023-02-01T19:05:20;10.95;;;1.90;;
29422;SDS011;16399;51.686;8.684;2023-02-01T19:08:23;11.30;;;1.80;;
29422;SDS011;16399;51.686;8.684;2023-02-01T19:11:25;16.00;;;2.20;;
29422;SDS011;16399;51.686;8.684;2023-02-01T19:14:28;9.15;;;1.57;;
29422;SDS011;16399;51.686;8.684;2023-02-01T19:17:30;6.12;;;1.72;;
29422;SDS011;16399;51.686;8.684;2023-02-01T19:20:32;6.30;;;1.60;;
29422;SDS011;16399;51.686;8.684;2023-02-01T19:23:35;8.00;;;1.52;;
29422;SDS011;16399;51.686;8.684;2023-02-01T19:26:39;9.15;;;1.92;;
29422;SDS011;16399;51.686;8.684;2023-02-01T19:29:43;10.18;;;2.05;;
29422;SDS011;16399;51.686;8.684;2023-02-01T19:32:46;11.57;;;2.47;;
29422;SDS011;16399;51.686;8.684;2023-02-01T19:35:49;11.18;;;1.92;;
29422;SDS011;16399;51.686;8.684;2023-02-01T19:38:59;8.83;;;2.20;;
29422;SDS011;16399;51.686;8.684;2023-02-01T19:42:01;8.13;;;2.00;;
29422;SDS011;16399;51.686;8.684;2023-02-01T19:45:05;11.38;;;2.33;;
29422;SDS011;16399;51.686;8.684;2023-02-01T19:48:08;11.80;;;2.87;;
29422;SDS011;16399;51.686;8.684;2023-02-01T19:51:12;4.80;;;2.10;;
29422;SDS011;16399;51.686;8.684;2023-02-01T19:54:15;7.30;;;1.82;;